createdAt,value
2018-08-11T00:00:51.794Z,82.23
2018-08-11T00:03:20.308Z,82.59
2018-08-11T00:05:48.801Z,82.12
2018-08-11T00:08:17.376Z,82.33
2018-08-11T00:10:45.908Z,81.99
2018-08-11T00:13:14.467Z,82.49
2018-08-11T00:15:42.967Z,82.88
2018-08-11T00:18:11.548Z,82.34
2018-08-11T00:20:40.051Z,82.28
2018-08-11T00:23:08.546Z,82.25
2018-08-11T00:25:37.105Z,82.62
2018-08-11T00:28:05.708Z,83.59
2018-08-11T00:30:34.165Z,82.96
2018-08-11T00:33:02.700Z,82.67
2018-08-11T00:35:31.229Z,83.02
2018-08-11T00:37:59.821Z,82.89
2018-08-11T00:40:28.569Z,83.38
2018-08-11T00:42:57.073Z,83.27
2018-08-11T00:45:25.698Z,82.39
2018-08-11T00:47:54.277Z,82.32
2018-08-11T00:50:25.843Z,83.35
2018-08-11T00:52:54.557Z,82.96
2018-08-11T00:55:23.083Z,82.82
2018-08-11T00:57:51.572Z,83.44
2018-08-11T01:00:20.564Z,83.44
2018-08-11T01:02:49.092Z,83.60
2018-08-11T01:05:18.986Z,83.11
2018-08-11T01:07:47.907Z,83.79
2018-08-11T01:10:16.872Z,83.57
2018-08-11T01:12:46.341Z,83.51
2018-08-11T01:15:18.724Z,83.50
2018-08-11T01:17:47.911Z,83.65
2018-08-11T01:20:16.797Z,83.38
2018-08-11T01:22:46.169Z,83.26
2018-08-11T01:25:15.030Z,82.92
2018-08-11T01:27:43.572Z,83.58
2018-08-11T01:30:15.408Z,83.63
2018-08-11T01:32:44.236Z,83.66
2018-08-11T01:35:13.001Z,83.62
2018-08-11T01:37:42.468Z,84.08
2018-08-11T01:40:12.297Z,83.55
2018-08-11T01:42:41.964Z,83.79
2018-08-11T01:45:11.507Z,83.20
2018-08-11T01:47:40.598Z,83.25
2018-08-11T01:50:10.727Z,84.48
2018-08-11T01:52:40.277Z,84.74
2018-08-11T01:55:10.999Z,84.69
2018-08-11T01:57:39.666Z,85.06
2018-08-11T02:00:10.134Z,85.34
2018-08-11T02:02:38.851Z,85.81
2018-08-11T02:05:07.884Z,85.55
2018-08-11T02:07:36.818Z,85.61
2018-08-11T02:10:07.095Z,85.60
2018-08-11T02:12:35.664Z,84.50
2018-08-11T02:15:05.105Z,84.66
2018-08-11T02:17:33.581Z,83.76
2018-08-11T02:20:02.126Z,84.50
2018-08-11T02:22:30.634Z,84.31
2018-08-11T02:24:59.168Z,84.34
2018-08-11T02:27:27.762Z,84.92
2018-08-11T02:29:56.286Z,84.81
2018-08-11T02:32:24.803Z,84.02
2018-08-11T02:34:53.313Z,83.91
2018-08-11T02:37:21.837Z,83.83
2018-08-11T02:39:50.362Z,83.32
2018-08-11T02:42:18.912Z,83.79
2018-08-11T02:44:47.405Z,84.63
2018-08-11T02:47:15.875Z,84.69
2018-08-11T02:49:44.405Z,84.18
2018-08-11T02:52:12.868Z,83.79
2018-08-11T02:54:41.465Z,83.38
2018-08-11T02:57:09.953Z,83.18
2018-08-11T02:59:38.389Z,83.78
2018-08-11T03:02:06.887Z,83.47
2018-08-11T03:04:35.349Z,83.57
2018-08-11T03:07:04.135Z,84.02
2018-08-11T03:09:32.610Z,84.06
2018-08-11T03:12:01.072Z,83.84
2018-08-11T03:14:29.600Z,84.17
2018-08-11T03:16:58.116Z,83.91
2018-08-11T03:19:26.662Z,84.10
2018-08-11T03:21:55.281Z,84.56
2018-08-11T03:24:23.773Z,84.37
2018-08-11T03:26:52.272Z,84.65
2018-08-11T03:29:20.748Z,84.00
2018-08-11T03:31:49.201Z,84.37
2018-08-11T03:34:17.713Z,85.06
2018-08-11T03:36:46.179Z,84.16
2018-08-11T03:39:14.750Z,84.12
2018-08-11T03:41:43.248Z,84.45
2018-08-11T03:44:12.362Z,84.78
2018-08-11T03:46:40.912Z,84.81
2018-08-11T03:49:10.857Z,85.02
2018-08-11T03:51:39.332Z,85.27
2018-08-11T03:54:07.849Z,85.31
2018-08-11T03:56:36.351Z,85.26
2018-08-11T03:59:04.857Z,85.04
2018-08-11T04:01:33.316Z,85.61
2018-08-11T04:04:01.842Z,85.28
2018-08-11T04:06:30.543Z,85.63
2018-08-11T04:09:04.114Z,85.74
2018-08-11T04:11:35.578Z,85.55
2018-08-11T04:14:04.944Z,85.61
2018-08-11T04:16:33.418Z,85.69
2018-08-11T04:19:01.909Z,85.83
2018-08-11T04:21:30.417Z,85.62
2018-08-11T04:23:58.990Z,85.93
2018-08-11T04:26:27.666Z,86.08
2018-08-11T04:28:56.274Z,86.13
2018-08-11T04:32:53.946Z,86.43
2018-08-11T04:35:22.470Z,85.97
2018-08-11T04:37:51.076Z,86.86
2018-08-11T04:40:19.575Z,86.16
2018-08-11T04:42:48.061Z,86.40
2018-08-11T04:45:16.561Z,86.05
2018-08-11T04:47:45.132Z,86.32
2018-08-11T04:50:13.597Z,86.21
2018-08-11T04:52:42.444Z,86.35
2018-08-11T04:55:10.946Z,86.56
2018-08-11T04:57:39.455Z,86.75
2018-08-11T05:00:08.310Z,86.29
2018-08-11T05:02:36.816Z,86.37
2018-08-11T05:05:06.353Z,86.08
2018-08-11T05:07:34.792Z,85.67
2018-08-11T05:10:03.318Z,84.78
2018-08-11T05:12:31.812Z,84.56
2018-08-11T05:15:00.337Z,84.97
2018-08-11T05:17:28.897Z,84.07
2018-08-11T05:19:57.430Z,83.51
2018-08-11T05:22:25.917Z,83.41
2018-08-11T05:24:54.460Z,82.15
2018-08-11T05:27:22.900Z,81.92
2018-08-11T05:29:51.421Z,81.95
2018-08-11T05:32:19.957Z,81.55
2018-08-11T05:34:48.485Z,81.08
2018-08-11T05:37:16.981Z,82.18
2018-08-11T05:39:45.456Z,81.61
2018-08-11T05:42:13.959Z,77.86
2018-08-11T05:44:42.481Z,68.41
2018-08-11T05:47:11.021Z,65.47
2018-08-11T05:49:39.513Z,61.36
2018-08-11T05:52:08.031Z,56.68
2018-08-11T05:54:36.496Z,54.63
2018-08-11T05:57:05.117Z,55.93
2018-08-11T05:59:33.589Z,64.57
2018-08-11T06:02:02.153Z,70.18
2018-08-11T06:04:30.617Z,74.94
2018-08-11T06:06:59.129Z,76.12
2018-08-11T06:09:27.654Z,76.18
2018-08-11T06:11:56.136Z,76.68
2018-08-11T06:14:24.684Z,76.78
2018-08-11T06:16:53.164Z,74.84
2018-08-11T06:19:21.666Z,68.09
2018-08-11T06:21:50.135Z,69.32
2018-08-11T06:24:18.609Z,73.24
2018-08-11T06:26:47.084Z,63.27
2018-08-11T06:29:15.593Z,59.76
2018-08-11T06:31:44.172Z,52.65
2018-08-11T06:34:12.712Z,50.29
2018-08-11T06:36:41.195Z,53.31
2018-08-11T06:39:12.322Z,52.89
2018-08-11T06:41:40.900Z,53.11
2018-08-11T06:44:09.701Z,50.70
2018-08-11T06:46:38.269Z,49.92
2018-08-11T06:49:07.037Z,52.49
2018-08-11T06:51:35.564Z,51.94
2018-08-11T06:54:04.240Z,48.81
2018-08-11T06:56:32.714Z,47.07
2018-08-11T06:59:01.261Z,56.17
2018-08-11T07:01:29.738Z,67.64
2018-08-11T07:03:58.265Z,72.55
2018-08-11T07:06:26.786Z,71.52
2018-08-11T07:08:55.324Z,72.31
2018-08-11T07:11:23.815Z,72.08
2018-08-11T07:13:52.706Z,71.95
2018-08-11T07:16:21.374Z,72.50
2018-08-11T07:18:49.878Z,73.34
2018-08-11T07:21:18.406Z,70.78
2018-08-11T07:23:46.899Z,70.99
2018-08-11T07:26:15.372Z,72.08
2018-08-11T07:28:43.932Z,70.54
2018-08-11T07:31:12.413Z,69.28
2018-08-11T07:33:40.870Z,70.30
2018-08-11T07:36:09.427Z,70.62
2018-08-11T07:38:37.925Z,70.23
2018-08-11T07:41:07.264Z,70.31
2018-08-11T07:43:35.796Z,69.54
2018-08-11T07:46:04.340Z,69.61
2018-08-11T07:48:32.855Z,68.62
2018-08-11T07:51:01.382Z,68.46
2018-08-11T07:53:30.033Z,66.92
2018-08-11T07:55:58.618Z,68.32
2018-08-11T07:58:27.103Z,67.65
2018-08-11T08:00:55.589Z,66.86
2018-08-11T08:03:24.144Z,68.18
2018-08-11T08:05:52.593Z,68.40
2018-08-11T08:08:21.297Z,65.40
2018-08-11T08:10:49.826Z,66.67
2018-08-11T08:13:18.481Z,65.95
2018-08-11T08:15:47.046Z,66.42
2018-08-11T08:18:15.687Z,65.13
2018-08-11T08:20:44.233Z,65.10
2018-08-11T08:23:12.700Z,65.64
2018-08-11T08:25:41.177Z,66.08
2018-08-11T08:28:10.588Z,63.20
2018-08-11T08:30:39.067Z,63.31
2018-08-11T08:33:07.560Z,63.43
2018-08-11T08:35:36.033Z,63.83
2018-08-11T08:38:04.554Z,62.61
2018-08-11T08:40:33.008Z,61.41
2018-08-11T08:43:01.533Z,60.26
2018-08-11T08:45:30.021Z,59.18
2018-08-11T08:47:58.610Z,57.33
2018-08-11T08:50:27.214Z,56.50
2018-08-11T08:52:55.752Z,56.99
2018-08-11T08:55:24.301Z,57.06
2018-08-11T08:57:52.814Z,58.82
2018-08-11T09:00:21.276Z,58.25
2018-08-11T09:02:49.772Z,57.01
2018-08-11T09:05:18.282Z,56.15
2018-08-11T09:07:46.795Z,56.44
2018-08-11T09:10:15.266Z,57.85
2018-08-11T09:12:43.777Z,57.71
2018-08-11T09:15:12.261Z,56.45
2018-08-11T09:17:40.805Z,55.68
2018-08-11T09:20:09.280Z,55.29
2018-08-11T09:22:37.869Z,58.93
2018-08-11T09:25:06.408Z,59.59
2018-08-11T09:27:35.025Z,59.85
2018-08-11T09:30:03.567Z,59.23
2018-08-11T09:32:32.033Z,56.57
2018-08-11T09:35:00.528Z,56.13
2018-08-11T09:37:29.019Z,55.66
2018-08-11T09:39:57.508Z,56.57
2018-08-11T09:49:25.551Z,63.77
2018-08-11T09:51:54.022Z,68.57
2018-08-11T09:54:22.548Z,69.72
2018-08-11T09:56:51.029Z,72.30
2018-08-11T09:59:19.565Z,71.59
2018-08-11T10:01:52.265Z,72.31
2018-08-11T10:04:20.772Z,73.26
2018-08-11T10:06:49.325Z,72.57
2018-08-11T10:09:17.825Z,70.12
2018-08-11T10:11:46.309Z,70.67
2018-08-11T10:14:20.074Z,69.87
2018-08-11T10:16:48.693Z,68.22
2018-08-11T10:19:17.653Z,68.06
2018-08-11T10:21:46.144Z,68.00
2018-08-11T10:24:14.631Z,65.64
2018-08-11T10:26:43.142Z,64.53
2018-08-11T10:29:11.680Z,66.80
2018-08-11T10:31:40.152Z,65.73
2018-08-11T10:34:08.637Z,66.12
2018-08-11T10:36:37.206Z,65.85
2018-08-11T10:39:08.821Z,67.74
2018-08-11T10:41:38.504Z,68.41
2018-08-11T10:44:07.064Z,67.29
2018-08-11T10:46:35.556Z,67.67
2018-08-11T10:49:04.490Z,64.98
2018-08-11T10:51:33.317Z,65.28
2018-08-11T10:54:01.950Z,63.52
2018-08-11T10:56:30.437Z,65.33
2018-08-11T10:58:58.988Z,63.31
2018-08-11T11:01:27.525Z,63.60
2018-08-11T11:03:56.052Z,61.27
2018-08-11T11:06:24.581Z,61.22
2018-08-11T11:08:53.061Z,60.43
2018-08-11T11:11:21.553Z,61.24
2018-08-11T11:13:50.005Z,60.90
2018-08-11T11:16:18.580Z,62.99
2018-08-11T11:18:47.070Z,61.86
2018-08-11T11:21:15.593Z,62.27
2018-08-11T11:23:44.099Z,61.73
2018-08-11T11:26:12.627Z,61.40
2018-08-11T11:28:41.113Z,60.21
2018-08-11T11:31:09.602Z,58.25
2018-08-11T11:33:38.088Z,58.83
2018-08-11T11:36:06.642Z,57.38
2018-08-11T11:38:36.102Z,55.73
2018-08-11T11:41:04.594Z,56.47
2018-08-11T11:43:33.095Z,56.08
2018-08-11T11:46:01.642Z,55.63
2018-08-11T11:48:30.421Z,54.88
2018-08-11T11:50:59.020Z,55.38
2018-08-11T11:53:27.577Z,52.30
2018-08-11T11:55:56.428Z,52.90
2018-08-11T11:58:24.946Z,51.88
2018-08-11T12:00:53.445Z,50.11
2018-08-11T12:03:22.248Z,49.90
2018-08-11T12:05:50.740Z,50.95
2018-08-11T12:08:19.244Z,51.74
2018-08-11T12:10:47.803Z,49.31
2018-08-11T12:13:16.265Z,50.55
2018-08-11T12:15:44.733Z,48.58
2018-08-11T12:18:13.200Z,50.01
2018-08-11T12:20:41.694Z,48.56
2018-08-11T12:23:10.226Z,47.83
2018-08-11T12:25:38.680Z,48.24
2018-08-11T12:28:07.308Z,48.14
2018-08-11T12:30:35.851Z,47.67
2018-08-11T12:33:04.339Z,48.50
2018-08-11T12:35:32.852Z,49.15
2018-08-11T12:38:01.390Z,47.68
2018-08-11T12:40:29.986Z,47.10
2018-08-11T12:42:58.457Z,45.75
2018-08-11T12:45:26.941Z,45.66
2018-08-11T12:47:55.518Z,44.62
2018-08-11T12:50:24.193Z,44.99
2018-08-11T12:52:52.721Z,45.13
2018-08-11T12:55:21.226Z,44.53
2018-08-11T12:57:49.739Z,45.08
2018-08-11T13:00:18.248Z,44.75
2018-08-11T13:02:46.757Z,44.96
2018-08-11T13:05:15.316Z,43.73
2018-08-11T13:07:43.945Z,44.79
2018-08-11T13:10:12.463Z,43.24
2018-08-11T13:12:41.049Z,43.79
2018-08-11T13:15:09.663Z,43.61
2018-08-11T13:17:38.157Z,44.00
2018-08-11T13:20:07.554Z,43.43
2018-08-11T13:22:36.437Z,43.45
2018-08-11T13:25:04.965Z,43.56
2018-08-11T13:27:33.566Z,42.01
2018-08-11T13:30:02.425Z,40.63
2018-08-11T13:32:30.940Z,40.44
2018-08-11T13:34:59.437Z,42.09
2018-08-11T13:37:27.910Z,41.85
2018-08-11T13:39:56.392Z,42.27
2018-08-11T13:42:24.918Z,44.11
2018-08-11T13:44:53.454Z,44.36
2018-08-11T13:47:21.991Z,42.84
2018-08-11T13:49:50.644Z,42.45
2018-08-11T13:52:19.136Z,41.12
2018-08-11T13:54:47.626Z,41.92
2018-08-11T13:57:16.140Z,41.67
2018-08-11T13:59:44.651Z,41.55
2018-08-11T14:02:13.128Z,43.67
2018-08-11T14:04:41.705Z,43.50
2018-08-11T14:07:10.233Z,43.03
2018-08-11T14:09:38.753Z,43.58
2018-08-11T14:12:07.274Z,44.30
2018-08-11T14:14:35.772Z,43.20
2018-08-11T14:17:04.377Z,43.78
2018-08-11T14:19:32.994Z,42.28
2018-08-11T14:22:01.463Z,41.74
2018-08-11T14:24:30.027Z,42.02
2018-08-11T14:26:58.529Z,40.94
2018-08-11T14:29:27.029Z,39.94
2018-08-11T14:31:55.665Z,41.15
2018-08-11T14:34:24.152Z,42.30
2018-08-11T14:36:52.762Z,39.79
2018-08-11T14:39:21.313Z,40.96
2018-08-11T14:41:49.932Z,39.87
2018-08-11T14:44:18.465Z,41.04
2018-08-11T14:46:46.975Z,40.68
2018-08-11T14:49:15.661Z,40.20
2018-08-11T14:51:44.134Z,41.04
2018-08-11T14:54:13.229Z,41.04
2018-08-11T14:56:41.711Z,40.45
2018-08-11T14:59:10.190Z,40.60
2018-08-11T15:01:38.878Z,40.00
2018-08-11T15:04:07.373Z,40.21
2018-08-11T15:06:36.076Z,42.00
2018-08-11T15:09:07.154Z,41.44
2018-08-11T15:11:35.684Z,40.10
2018-08-11T15:14:04.444Z,40.49
2018-08-11T15:16:32.901Z,40.28
2018-08-11T15:19:01.421Z,39.92
2018-08-11T15:21:29.909Z,39.27
2018-08-11T15:23:58.448Z,39.04
2018-08-11T15:26:26.980Z,39.94
2018-08-11T15:28:55.513Z,39.34
2018-08-11T15:31:24.028Z,39.78
2018-08-11T15:33:52.565Z,40.41
2018-08-11T15:36:21.123Z,41.14
2018-08-11T15:38:49.570Z,41.62
2018-08-11T15:41:18.057Z,40.56
2018-08-11T15:43:46.588Z,42.46
2018-08-11T15:46:15.072Z,41.28
2018-08-11T15:48:43.985Z,41.09
2018-08-11T15:51:12.487Z,40.27
2018-08-11T15:53:40.969Z,39.79
2018-08-11T15:56:09.468Z,40.17
2018-08-11T15:58:40.915Z,40.48
2018-08-11T16:01:09.535Z,39.36
2018-08-11T16:03:38.018Z,38.44
2018-08-11T16:06:06.872Z,40.84
2018-08-11T16:08:35.377Z,42.33
2018-08-11T16:11:03.888Z,43.23
2018-08-11T16:13:32.377Z,43.79
2018-08-11T16:16:00.871Z,42.88
2018-08-11T16:18:29.378Z,42.64
2018-08-11T16:20:57.953Z,41.41
2018-08-11T16:23:26.494Z,41.44
2018-08-11T16:25:55.101Z,41.41
2018-08-11T16:28:23.568Z,41.46
2018-08-11T16:30:52.054Z,40.21
2018-08-11T16:33:20.728Z,41.31
2018-08-11T16:35:49.210Z,41.02
2018-08-11T16:38:17.730Z,43.04
2018-08-11T16:40:46.284Z,42.57
2018-08-11T16:43:14.783Z,42.27
2018-08-11T16:45:43.310Z,43.12
2018-08-11T16:48:11.860Z,42.46
2018-08-11T16:50:40.358Z,43.64
2018-08-11T16:53:08.901Z,42.80
2018-08-11T16:55:37.524Z,43.59
2018-08-11T16:58:06.436Z,42.86
2018-08-11T17:00:35.253Z,44.09
2018-08-11T17:03:03.725Z,43.77
2018-08-11T17:05:32.188Z,43.05
2018-08-11T17:08:00.672Z,42.90
2018-08-11T17:10:29.178Z,42.59
2018-08-11T17:12:57.648Z,42.99
2018-08-11T17:15:26.092Z,41.04
2018-08-11T17:17:54.633Z,41.72
2018-08-11T17:20:23.189Z,43.01
2018-08-11T17:22:51.681Z,43.50
2018-08-11T17:25:20.181Z,44.14
2018-08-11T17:27:48.678Z,44.51
2018-08-11T17:30:17.176Z,44.50
2018-08-11T17:32:46.099Z,43.96
2018-08-11T17:35:14.597Z,44.23
2018-08-11T17:37:43.093Z,44.11
2018-08-11T17:40:11.687Z,44.40
2018-08-11T17:42:40.176Z,44.55
2018-08-11T17:45:09.496Z,44.26
2018-08-11T17:47:40.546Z,45.05
2018-08-11T17:50:09.904Z,45.10
2018-08-11T17:52:39.419Z,44.69
2018-08-11T17:55:10.236Z,44.81
2018-08-11T17:57:39.852Z,44.83
2018-08-11T18:00:10.740Z,45.89
2018-08-11T18:02:41.854Z,45.55
2018-08-11T18:05:10.409Z,45.88
2018-08-11T18:07:39.578Z,45.67
2018-08-11T18:10:09.905Z,47.01
2018-08-11T18:12:38.537Z,46.53
2018-08-11T18:15:07.061Z,47.24
2018-08-11T18:17:35.872Z,47.63
2018-08-11T18:20:04.469Z,46.58
2018-08-11T18:22:32.931Z,45.09
2018-08-11T18:25:01.414Z,45.14
2018-08-11T18:27:29.916Z,45.95
2018-08-11T18:29:58.453Z,45.68
2018-08-11T18:32:26.990Z,45.39
2018-08-11T18:34:55.597Z,46.75
2018-08-11T18:37:24.147Z,47.21
2018-08-11T18:39:52.627Z,48.66
2018-08-11T18:42:21.353Z,48.89
2018-08-11T18:44:49.824Z,49.96
2018-08-11T18:47:18.296Z,50.52
2018-08-11T18:49:46.850Z,50.45
2018-08-11T18:52:15.430Z,50.82
2018-08-11T18:54:44.053Z,51.67
2018-08-11T18:57:12.688Z,52.60
2018-08-11T18:59:41.238Z,52.87
2018-08-11T19:02:16.446Z,53.55
2018-08-11T19:04:44.955Z,53.64
2018-08-11T19:07:13.488Z,53.54
2018-08-11T19:09:41.972Z,53.78
2018-08-11T19:12:10.471Z,54.49
2018-08-11T19:14:39.084Z,54.00
2018-08-11T19:17:07.573Z,55.29
2018-08-11T19:19:36.134Z,55.82
2018-08-11T19:22:04.963Z,55.58
2018-08-11T19:24:33.498Z,55.70
2018-08-11T19:27:02.053Z,57.76
2018-08-11T19:29:30.649Z,57.84
2018-08-11T19:31:59.168Z,58.69
2018-08-11T19:34:27.664Z,59.60
2018-08-11T19:36:56.518Z,59.50
2018-08-11T19:39:25.017Z,60.54
2018-08-11T19:41:53.561Z,60.05
2018-08-11T19:44:22.037Z,60.43
2018-08-11T19:46:50.561Z,61.06
2018-08-11T19:49:19.126Z,60.92
2018-08-11T19:51:47.691Z,61.48
2018-08-11T19:54:16.353Z,61.55
2018-08-11T19:56:44.834Z,62.57
2018-08-11T19:59:13.406Z,62.60
2018-08-11T20:01:41.975Z,62.57
2018-08-11T20:04:13.394Z,63.31
2018-08-11T20:06:42.764Z,62.91
2018-08-11T20:09:12.157Z,63.60
2018-08-11T20:11:40.710Z,62.97
2018-08-11T20:14:09.390Z,64.44
2018-08-11T20:16:38.197Z,65.54
2018-08-11T20:19:06.994Z,64.85
2018-08-11T20:21:35.449Z,65.01
2018-08-11T20:24:03.932Z,64.78
2018-08-11T20:26:32.425Z,64.69
2018-08-11T20:29:00.981Z,65.09
2018-08-11T20:31:29.509Z,65.12
2018-08-11T20:33:58.025Z,65.97
2018-08-11T20:36:26.753Z,65.80
2018-08-11T20:38:55.240Z,66.64
2018-08-11T20:41:23.773Z,66.55
2018-08-11T20:43:52.304Z,67.41
2018-08-11T20:46:20.893Z,67.54
2018-08-11T20:48:49.501Z,67.55
2018-08-11T20:51:18.046Z,68.17
2018-08-11T20:53:46.586Z,68.94
2018-08-11T20:56:15.129Z,68.94
2018-08-11T20:58:43.675Z,69.52
2018-08-11T21:01:12.272Z,69.71
2018-08-11T21:03:40.930Z,69.90
2018-08-11T21:06:09.478Z,69.97
2018-08-11T21:08:38.046Z,70.26
2018-08-11T21:11:06.628Z,70.17
2018-08-11T21:13:35.138Z,70.79
2018-08-11T21:16:03.662Z,70.65
2018-08-11T21:18:32.241Z,70.45
2018-08-11T21:21:01.113Z,71.12
2018-08-11T21:23:30.209Z,71.19
2018-08-11T21:25:58.830Z,71.77
2018-08-11T21:28:27.424Z,72.68
2018-08-11T21:30:55.913Z,72.41
2018-08-11T21:33:24.502Z,72.26
2018-08-11T21:35:53.053Z,72.05
2018-08-11T21:38:21.582Z,72.85
2018-08-11T21:40:50.021Z,72.21
2018-08-11T21:43:18.532Z,72.81
2018-08-11T21:45:47.057Z,73.41
2018-08-11T21:48:15.577Z,74.04
2018-08-11T21:50:44.135Z,74.32
2018-08-11T21:53:12.618Z,74.08
2018-08-11T21:55:41.597Z,74.15
2018-08-11T21:58:10.125Z,74.14
2018-08-11T22:00:38.959Z,74.22
2018-08-11T22:03:09.121Z,74.15
2018-08-11T22:05:37.678Z,74.42
2018-08-11T22:08:06.253Z,74.43
2018-08-11T22:10:34.801Z,74.64
2018-08-11T22:13:03.442Z,74.16
2018-08-11T22:15:32.109Z,74.63
2018-08-11T22:18:00.687Z,74.63
2018-08-11T22:20:29.678Z,76.12
2018-08-11T22:22:58.168Z,76.50
2018-08-11T22:25:26.684Z,76.33
2018-08-11T22:27:55.188Z,76.01
2018-08-11T22:30:23.705Z,75.58
2018-08-11T22:32:52.288Z,75.01
2018-08-11T22:35:20.865Z,74.64
2018-08-11T22:37:49.362Z,74.65
2018-08-11T22:40:17.890Z,75.16
2018-08-11T22:42:46.373Z,74.70
2018-08-11T22:45:14.857Z,74.27
2018-08-11T22:47:43.393Z,74.50
2018-08-11T22:50:13.679Z,74.06
2018-08-11T22:52:42.405Z,73.58
2018-08-11T22:55:10.909Z,73.59
2018-08-11T22:57:39.488Z,73.96
2018-08-11T23:00:17.674Z,73.77
2018-08-11T23:02:46.389Z,74.23
2018-08-11T23:05:15.424Z,74.37
2018-08-11T23:07:44.119Z,74.22
2018-08-11T23:10:13.880Z,73.93
2018-08-11T23:12:43.373Z,74.35
2018-08-11T23:15:15.272Z,74.47
2018-08-11T23:17:45.413Z,73.57
2018-08-11T23:20:14.433Z,73.58
2018-08-11T23:22:43.044Z,73.62
2018-08-11T23:25:11.944Z,73.89
2018-08-11T23:27:40.629Z,74.17
2018-08-11T23:30:12.054Z,73.59
2018-08-11T23:32:41.222Z,73.80
2018-08-11T23:35:09.937Z,74.18
2018-08-11T23:37:38.817Z,73.71
2018-08-11T23:40:08.260Z,73.97
2018-08-11T23:42:37.096Z,73.99
2018-08-11T23:45:08.576Z,73.60
2018-08-11T23:47:37.279Z,74.38
2018-08-11T23:50:06.837Z,74.27
2018-08-11T23:52:35.328Z,74.57
2018-08-11T23:55:04.757Z,74.62
2018-08-11T23:57:33.345Z,74.33
